createdAt,value
2017-10-01T06:38:10.227Z,18.62
2017-10-01T06:40:37.498Z,18.62
2017-10-01T06:43:04.715Z,18.63
2017-10-01T06:45:31.905Z,18.64
2017-10-01T06:47:59.246Z,18.63
2017-10-01T06:50:26.464Z,18.64
2017-10-01T06:52:53.642Z,18.64
2017-10-01T06:55:20.912Z,18.64
2017-10-01T06:57:48.139Z,18.64
2017-10-01T07:00:15.374Z,18.64
2017-10-01T07:02:42.612Z,18.65
2017-10-01T07:05:22.091Z,18.66
2017-10-01T07:07:49.328Z,18.66
2017-10-01T07:10:16.622Z,18.66
2017-10-01T07:12:43.789Z,18.67
2017-10-01T07:15:11.076Z,18.66
2017-10-01T07:17:38.257Z,18.66
2017-10-01T07:20:05.435Z,18.67
2017-10-01T07:22:32.631Z,18.67
2017-10-01T07:24:59.798Z,18.67
2017-10-01T07:27:27.045Z,18.68
2017-10-01T07:29:54.271Z,18.68
2017-10-01T07:32:21.515Z,18.69
2017-10-01T07:34:48.841Z,18.69
2017-10-01T07:37:24.497Z,18.70
2017-10-01T07:39:51.733Z,18.69
2017-10-01T07:42:22.505Z,18.70
2017-10-01T07:44:49.720Z,18.71
2017-10-01T07:47:16.974Z,18.72
2017-10-01T07:49:44.250Z,18.71
2017-10-01T07:52:11.491Z,18.72
2017-10-01T07:54:38.759Z,18.72
2017-10-01T07:57:05.999Z,18.72
2017-10-01T07:59:33.158Z,18.73
2017-10-01T08:02:00.432Z,18.73
2017-10-01T08:04:40.193Z,18.73
2017-10-01T08:07:07.378Z,18.73
2017-10-01T08:09:34.678Z,18.74
2017-10-01T08:12:01.914Z,18.75
2017-10-01T08:14:29.208Z,18.75
2017-10-01T08:16:57.129Z,18.75
2017-10-01T08:19:28.174Z,18.76
2017-10-01T08:21:55.354Z,18.77
2017-10-01T08:24:23.590Z,18.77
2017-10-01T08:27:05.750Z,18.78
2017-10-01T08:29:32.926Z,18.80
2017-10-01T08:32:00.071Z,18.80
2017-10-01T08:34:27.306Z,18.81
2017-10-01T08:36:54.504Z,18.81
2017-10-01T08:39:21.658Z,18.82
2017-10-01T08:41:48.874Z,18.83
2017-10-01T08:44:16.153Z,18.84
2017-10-01T08:46:43.412Z,18.84
2017-10-01T08:49:10.626Z,18.83
2017-10-01T08:51:37.858Z,18.85
2017-10-01T08:54:05.083Z,18.84
2017-10-01T08:56:32.277Z,18.85
2017-10-01T08:58:59.434Z,18.86
2017-10-01T09:01:26.686Z,18.86
2017-10-01T09:03:53.912Z,18.88
2017-10-01T09:06:21.083Z,18.88
2017-10-01T09:08:48.562Z,18.88
2017-10-01T09:11:15.768Z,18.89
2017-10-01T09:13:42.976Z,18.90
2017-10-01T09:16:10.184Z,18.90
2017-10-01T09:18:37.402Z,18.90
2017-10-01T09:21:04.703Z,18.91
2017-10-01T09:23:31.903Z,18.90
2017-10-01T09:25:59.118Z,18.91
2017-10-01T09:28:50.090Z,18.91
2017-10-01T09:31:17.425Z,18.92
2017-10-01T09:33:44.616Z,18.93
2017-10-01T09:36:12.242Z,18.94
2017-10-01T09:38:39.483Z,18.94
2017-10-01T09:41:06.666Z,18.95
2017-10-01T09:43:33.868Z,18.95
2017-10-01T09:46:01.111Z,18.95
2017-10-01T09:48:28.380Z,18.95
2017-10-01T09:50:55.598Z,18.95
2017-10-01T09:53:22.848Z,18.96
2017-10-01T09:55:50.064Z,18.97
2017-10-01T09:58:17.294Z,18.97
2017-10-01T10:00:44.493Z,18.98
2017-10-01T10:03:11.732Z,18.98
2017-10-01T10:05:38.941Z,18.98
2017-10-01T10:08:06.148Z,18.99
2017-10-01T10:10:33.369Z,18.99
2017-10-01T10:15:43.019Z,19.00
2017-10-01T10:18:10.952Z,19.01
2017-10-01T10:20:38.116Z,19.01
2017-10-01T10:23:05.487Z,19.02
2017-10-01T10:25:42.760Z,19.03
2017-10-01T10:28:10.033Z,19.03
2017-10-01T10:30:37.266Z,19.04
2017-10-01T10:33:04.480Z,19.05
2017-10-01T10:35:31.707Z,19.05
2017-10-01T10:37:58.943Z,19.05
2017-10-01T10:40:47.065Z,19.06
2017-10-01T10:45:59.408Z,19.07
2017-10-01T10:48:26.643Z,19.07
2017-10-01T10:50:53.936Z,19.07
2017-10-01T10:53:21.156Z,19.07
2017-10-01T10:55:48.411Z,19.08
2017-10-01T11:01:18.849Z,19.09
2017-10-01T11:03:46.082Z,19.09
2017-10-01T11:06:13.307Z,19.09
2017-10-01T11:08:40.475Z,19.10
2017-10-01T11:11:07.631Z,19.10
2017-10-01T11:13:54.211Z,19.09
2017-10-01T11:16:21.529Z,19.10
2017-10-01T11:18:48.707Z,19.09
2017-10-01T11:21:16.025Z,19.09
2017-10-01T11:23:43.251Z,19.10
2017-10-01T11:26:10.530Z,19.08
2017-10-01T11:28:37.720Z,19.09
2017-10-01T11:34:04.409Z,19.10
2017-10-01T11:36:31.655Z,19.09
2017-10-01T11:38:58.838Z,19.10
2017-10-01T11:41:26.218Z,19.11
2017-10-01T11:43:53.394Z,19.11
2017-10-01T11:46:20.629Z,19.11
2017-10-01T11:48:47.876Z,19.12
2017-10-01T11:51:15.111Z,19.14
2017-10-01T11:53:42.280Z,19.17
2017-10-01T11:56:09.498Z,19.20
2017-10-01T11:58:36.725Z,19.21
2017-10-01T12:01:03.963Z,19.24
2017-10-01T12:03:31.189Z,19.26
2017-10-01T12:05:58.386Z,19.28
2017-10-01T12:08:25.623Z,19.30
2017-10-01T12:10:52.854Z,19.32
2017-10-01T12:13:20.053Z,19.34
2017-10-01T12:15:47.289Z,19.35
2017-10-01T12:18:14.563Z,19.37
2017-10-01T12:20:41.795Z,19.39
2017-10-01T12:23:08.998Z,19.41
2017-10-01T12:25:36.224Z,19.44
2017-10-01T12:28:03.467Z,19.47
2017-10-01T12:30:30.755Z,19.48
2017-10-01T12:32:57.981Z,19.49
2017-10-01T12:35:25.219Z,19.51
2017-10-01T12:37:52.384Z,19.52
2017-10-01T12:40:19.591Z,19.54
2017-10-01T12:42:46.815Z,19.54
2017-10-01T12:45:14.080Z,19.55
2017-10-01T12:47:41.383Z,19.58
2017-10-01T12:50:08.579Z,19.59
2017-10-01T12:52:35.748Z,19.59
2017-10-01T12:55:03.012Z,19.60
2017-10-01T12:57:30.179Z,19.61
2017-10-01T12:59:57.374Z,19.62
2017-10-01T13:02:24.583Z,19.63
2017-10-01T13:04:51.792Z,19.63
2017-10-01T13:07:18.991Z,19.64
2017-10-01T13:09:46.217Z,19.64
2017-10-01T13:12:13.441Z,19.65
2017-10-01T13:14:40.704Z,19.65
2017-10-01T13:17:07.893Z,19.67
2017-10-01T13:19:35.114Z,19.67
2017-10-01T13:22:02.359Z,19.67
2017-10-01T13:24:29.570Z,19.68
2017-10-01T13:26:56.850Z,19.68
2017-10-01T13:29:24.054Z,19.69
2017-10-01T13:31:51.750Z,19.69
2017-10-01T13:34:19.016Z,19.69
2017-10-01T13:36:46.182Z,19.69
2017-10-01T13:39:13.418Z,19.69
2017-10-01T13:41:40.610Z,19.69
2017-10-01T13:44:07.770Z,19.69
2017-10-01T13:46:35.067Z,19.69
2017-10-01T13:49:02.230Z,19.70
2017-10-01T13:51:29.426Z,19.70
2017-10-01T13:53:56.627Z,19.71
2017-10-01T13:56:23.843Z,19.71
2017-10-01T13:58:51.032Z,19.72
2017-10-01T14:01:18.321Z,19.73
2017-10-01T14:03:45.664Z,19.73
2017-10-01T14:06:12.959Z,19.74
2017-10-01T14:08:40.197Z,19.75
2017-10-01T14:11:07.382Z,19.75
2017-10-01T14:13:34.726Z,19.75
2017-10-01T14:16:01.902Z,19.76
2017-10-01T14:18:29.129Z,19.76
2017-10-01T14:20:56.417Z,19.75
2017-10-01T14:23:23.609Z,19.75
2017-10-01T14:25:50.849Z,19.75
2017-10-01T14:28:18.378Z,19.75
2017-10-01T14:30:46.101Z,19.75
2017-10-01T14:33:13.384Z,19.75
2017-10-01T14:35:40.639Z,19.75
2017-10-01T14:38:07.807Z,19.74
2017-10-01T14:40:35.223Z,19.74
2017-10-01T14:43:02.443Z,19.74
2017-10-01T14:45:29.639Z,19.74
2017-10-01T14:47:56.934Z,19.73
2017-10-01T14:50:24.177Z,19.72
2017-10-01T14:52:51.327Z,19.71
2017-10-01T14:55:18.566Z,19.71
2017-10-01T14:57:45.833Z,19.71
2017-10-01T15:00:13.040Z,19.71
2017-10-01T15:02:40.274Z,19.70
2017-10-01T15:05:07.514Z,19.70
2017-10-01T15:07:34.689Z,19.70
2017-10-01T15:10:01.924Z,19.70
2017-10-01T15:12:29.142Z,19.70
2017-10-01T15:14:56.379Z,19.68
2017-10-01T15:17:23.620Z,19.69
2017-10-01T15:19:50.872Z,19.68
2017-10-01T15:22:18.099Z,19.68
2017-10-01T15:24:45.311Z,19.69
2017-10-01T15:27:12.502Z,19.68
2017-10-01T15:29:39.686Z,19.67
2017-10-01T15:32:06.955Z,19.67
2017-10-01T15:34:34.196Z,19.67
2017-10-01T15:37:01.450Z,19.67
2017-10-01T15:39:28.609Z,19.67
2017-10-01T15:41:55.872Z,19.66
2017-10-01T15:44:23.043Z,19.66
2017-10-01T15:46:50.263Z,19.65
2017-10-01T15:49:17.524Z,19.65
2017-10-01T15:51:44.853Z,19.64
2017-10-01T15:54:12.031Z,19.63
2017-10-01T15:56:39.291Z,19.64
2017-10-01T15:59:06.554Z,19.63
2017-10-01T16:01:33.879Z,19.62
2017-10-01T16:04:01.086Z,19.62
2017-10-01T16:06:28.389Z,19.63
2017-10-01T16:08:55.621Z,19.61
2017-10-01T16:11:22.826Z,19.62
2017-10-01T16:13:50.043Z,19.62
2017-10-01T16:16:17.615Z,19.61
2017-10-01T16:18:44.879Z,19.62
2017-10-01T16:21:12.120Z,19.61
2017-10-01T16:23:39.342Z,19.61
2017-10-01T16:26:06.587Z,19.61
2017-10-01T16:28:33.843Z,19.60
2017-10-01T16:31:01.087Z,19.60
2017-10-01T16:33:28.345Z,19.59
2017-10-01T16:35:55.599Z,19.58
2017-10-01T16:38:22.765Z,19.59
2017-10-01T16:40:50.105Z,19.59
2017-10-01T16:43:19.931Z,19.59
2017-10-01T16:45:47.173Z,19.58
2017-10-01T16:48:14.461Z,19.58
2017-10-01T16:50:41.700Z,19.57
2017-10-01T16:53:08.854Z,19.57
2017-10-01T16:55:36.038Z,19.56
2017-10-01T16:58:03.254Z,19.56
2017-10-01T17:00:30.492Z,19.56
2017-10-01T17:02:57.646Z,19.55
2017-10-01T17:05:24.912Z,19.54
2017-10-01T17:07:52.167Z,19.53
2017-10-01T17:10:19.550Z,19.52
2017-10-01T17:12:46.870Z,19.52
2017-10-01T17:15:14.040Z,19.52
2017-10-01T17:17:41.290Z,19.50
2017-10-01T17:20:08.520Z,19.51
2017-10-01T17:22:35.675Z,19.50
2017-10-01T17:25:02.911Z,19.49
2017-10-01T17:27:30.096Z,19.49
2017-10-01T17:29:57.355Z,19.48
2017-10-01T17:32:24.568Z,19.48
2017-10-01T17:34:51.887Z,19.47
2017-10-01T17:37:19.098Z,19.47
2017-10-01T17:39:46.347Z,19.46
2017-10-01T17:42:13.587Z,19.46
2017-10-01T17:44:40.870Z,19.44
2017-10-01T17:47:08.063Z,19.45
2017-10-01T17:49:35.353Z,19.44
2017-10-01T17:52:02.644Z,19.43
2017-10-01T17:54:29.979Z,19.42
2017-10-01T17:56:57.314Z,19.42
2017-10-01T17:59:24.557Z,19.43
2017-10-01T18:01:51.778Z,19.40
2017-10-01T18:04:18.966Z,19.38
2017-10-01T18:06:46.209Z,19.35
2017-10-01T18:09:13.422Z,19.32
2017-10-01T18:11:40.656Z,19.29
2017-10-01T18:14:07.881Z,19.26
2017-10-01T18:16:35.410Z,19.24
2017-10-01T18:19:02.626Z,19.22
2017-10-01T18:21:29.849Z,19.20
2017-10-01T18:23:57.079Z,19.17
2017-10-01T18:26:24.309Z,19.14
2017-10-01T18:28:51.556Z,19.13
2017-10-01T18:31:18.754Z,19.11
2017-10-01T18:33:45.963Z,19.09
2017-10-01T18:36:13.190Z,19.07
2017-10-01T18:38:40.391Z,19.06
2017-10-01T18:41:07.629Z,19.05
2017-10-01T18:43:34.882Z,19.04
2017-10-01T18:46:02.049Z,19.02
2017-10-01T18:48:29.313Z,19.00
2017-10-01T18:50:56.509Z,18.99
2017-10-01T18:53:23.724Z,18.98
2017-10-01T18:55:50.881Z,18.97
2017-10-01T18:58:18.054Z,18.95
2017-10-01T19:00:45.334Z,18.94
2017-10-01T19:03:12.579Z,18.93
2017-10-01T19:05:39.781Z,18.92
2017-10-01T19:08:07.049Z,18.91
2017-10-01T19:10:34.285Z,18.90
2017-10-01T19:13:01.506Z,18.89
2017-10-01T19:15:28.683Z,18.89
2017-10-01T19:17:55.925Z,18.87
2017-10-01T19:20:23.170Z,18.87
2017-10-01T19:22:50.415Z,18.86
2017-10-01T19:25:17.710Z,18.85
2017-10-01T19:27:44.922Z,18.85
2017-10-01T19:30:12.194Z,18.84
2017-10-01T19:32:39.444Z,18.83
2017-10-01T19:35:06.680Z,18.82
2017-10-01T19:37:33.920Z,18.82
2017-10-01T19:40:01.172Z,18.81
2017-10-01T19:42:28.317Z,18.80
2017-10-01T19:44:55.570Z,18.79
2017-10-01T19:47:22.775Z,18.79
2017-10-01T19:49:49.960Z,18.77
2017-10-01T19:52:17.179Z,18.77
2017-10-01T19:54:44.419Z,18.76
2017-10-01T19:57:11.644Z,18.76
2017-10-01T19:59:38.846Z,18.75
2017-10-01T20:02:06.066Z,18.75
2017-10-01T20:04:33.282Z,18.74
2017-10-01T20:07:00.578Z,18.74
2017-10-01T20:09:27.739Z,18.74
2017-10-01T20:11:54.978Z,18.71
2017-10-01T20:14:22.179Z,18.72
2017-10-01T20:16:49.346Z,18.71
2017-10-01T20:19:16.555Z,18.70
2017-10-01T20:21:43.764Z,18.69
2017-10-01T20:24:11.032Z,18.68
2017-10-01T20:26:38.414Z,18.68
2017-10-01T20:29:05.614Z,18.68
2017-10-01T20:31:32.799Z,18.67
2017-10-01T20:34:00.034Z,18.67
2017-10-01T20:36:27.215Z,18.66
2017-10-01T20:38:54.448Z,18.66
2017-10-01T20:41:21.673Z,18.66
2017-10-01T20:43:48.866Z,18.65
2017-10-01T20:46:16.048Z,18.65
2017-10-01T20:48:43.279Z,18.65
2017-10-01T20:51:10.495Z,18.65
2017-10-01T20:53:38.540Z,18.64
2017-10-01T20:56:05.713Z,18.63
2017-10-01T20:58:32.934Z,18.63
2017-10-01T21:01:00.303Z,18.62
2017-10-01T21:03:27.689Z,18.62
2017-10-01T21:05:54.917Z,18.62
2017-10-01T21:08:22.146Z,18.60
2017-10-01T21:10:49.372Z,18.60
2017-10-01T21:13:16.541Z,18.60
2017-10-01T21:15:43.755Z,18.60
2017-10-01T21:18:10.930Z,18.59
2017-10-01T21:20:38.131Z,18.59
2017-10-01T21:23:05.408Z,18.59
2017-10-01T21:25:32.593Z,18.59
2017-10-01T21:27:59.825Z,18.58
2017-10-01T21:30:26.980Z,18.57
2017-10-01T21:32:54.155Z,18.58
2017-10-01T21:35:21.412Z,18.57
2017-10-01T21:37:48.596Z,18.57
2017-10-01T21:40:15.830Z,18.57
2017-10-01T21:42:43.107Z,18.56
2017-10-01T21:45:10.394Z,18.56
2017-10-01T21:47:37.629Z,18.55
2017-10-01T21:50:04.960Z,18.55
2017-10-01T21:52:32.150Z,18.55
2017-10-01T21:54:59.402Z,18.54
2017-10-01T21:57:26.608Z,18.54
2017-10-01T21:59:53.803Z,18.54
2017-10-01T22:02:21.042Z,18.54
2017-10-01T22:04:48.314Z,18.54
2017-10-01T22:07:15.558Z,18.54
2017-10-01T22:09:42.726Z,18.53
2017-10-01T22:12:09.951Z,18.53
2017-10-01T22:14:37.126Z,18.53
2017-10-01T22:17:04.267Z,18.53
2017-10-01T22:19:31.535Z,18.52
2017-10-01T22:21:58.774Z,18.50
2017-10-01T22:24:25.990Z,18.51
2017-10-01T22:26:53.347Z,18.50
2017-10-01T22:29:20.509Z,18.50
2017-10-01T22:31:47.717Z,18.51
2017-10-01T22:34:14.958Z,18.51
2017-10-01T22:36:42.198Z,18.50
2017-10-01T22:39:09.402Z,18.50
2017-10-01T22:41:36.620Z,18.49
2017-10-01T22:44:03.783Z,18.49
2017-10-01T22:46:30.937Z,18.50
2017-10-01T22:48:58.149Z,18.48
2017-10-01T22:51:25.380Z,18.48
2017-10-01T22:53:52.585Z,18.49
2017-10-01T22:56:19.798Z,18.48
2017-10-01T22:58:47.014Z,18.48
2017-10-01T23:01:14.219Z,18.48
2017-10-01T23:03:41.461Z,18.48
2017-10-01T23:06:08.650Z,18.47
2017-10-01T23:08:35.912Z,18.46
2017-10-01T23:11:03.114Z,18.46
2017-10-01T23:13:30.427Z,18.46
2017-10-01T23:15:57.620Z,18.46
2017-10-01T23:18:24.824Z,18.45
2017-10-01T23:20:52.115Z,18.45
2017-10-01T23:23:19.380Z,18.45
2017-10-01T23:25:46.639Z,18.44
2017-10-01T23:28:13.848Z,18.44
2017-10-01T23:30:41.076Z,18.44
2017-10-01T23:33:08.340Z,18.44
2017-10-01T23:35:35.517Z,18.43
2017-10-01T23:38:02.744Z,18.43
2017-10-01T23:40:29.963Z,18.43
2017-10-01T23:42:57.126Z,18.42
2017-10-01T23:45:24.439Z,18.42
2017-10-01T23:47:51.655Z,18.42
2017-10-01T23:50:18.839Z,18.42
2017-10-01T23:52:46.066Z,18.41
2017-10-01T23:55:13.334Z,18.41
2017-10-01T23:57:40.581Z,18.42
